createdAt,value
2023-05-19T00:00:34.469Z,66.40
2023-05-19T00:03:03.321Z,64.10
2023-05-19T00:05:31.985Z,63.60
2023-05-19T00:08:01.183Z,63.50
2023-05-19T00:10:31.786Z,63.90
2023-05-19T00:13:02.258Z,64.70
2023-05-19T00:15:30.942Z,65.20
2023-05-19T00:17:59.366Z,65.60
2023-05-19T00:20:27.353Z,64.10
2023-05-19T00:22:55.516Z,64.30
2023-05-19T00:25:23.669Z,66.00
2023-05-19T00:27:51.671Z,67.40
2023-05-19T00:30:22.842Z,67.40
2023-05-19T00:32:50.970Z,66.30
2023-05-19T00:35:19.056Z,65.30
2023-05-19T00:37:47.104Z,64.20
2023-05-19T00:40:15.272Z,63.10
2023-05-19T00:42:43.538Z,63.00
2023-05-19T00:45:11.893Z,61.70
2023-05-19T00:47:41.277Z,61.60
2023-05-19T00:50:09.972Z,61.60
2023-05-19T00:52:38.026Z,62.30
2023-05-19T00:55:08.120Z,62.10
2023-05-19T00:57:36.323Z,61.60
2023-05-19T01:00:05.727Z,62.00
2023-05-19T01:02:33.955Z,61.70
2023-05-19T01:05:03.821Z,60.70
2023-05-19T01:07:31.905Z,60.60
2023-05-19T01:09:59.966Z,61.90
2023-05-19T01:12:28.489Z,62.80
2023-05-19T01:14:57.146Z,62.90
2023-05-19T01:17:29.617Z,62.90
2023-05-19T01:20:11.031Z,62.10
2023-05-19T01:23:01.852Z,62.20
2023-05-19T01:26:01.913Z,61.90
2023-05-19T01:28:54.176Z,61.50
2023-05-19T01:31:24.874Z,62.60
2023-05-19T01:33:54.607Z,62.80
2023-05-19T01:36:24.172Z,62.70
2023-05-19T01:38:54.992Z,63.00
2023-05-19T01:41:24.051Z,62.90
2023-05-19T01:43:54.219Z,62.90
2023-05-19T01:46:24.241Z,62.50
2023-05-19T01:48:53.512Z,62.70
2023-05-19T01:51:21.513Z,62.50
2023-05-19T01:53:49.490Z,63.20
2023-05-19T01:56:25.114Z,63.40
2023-05-19T01:59:00.156Z,62.50
2023-05-19T02:01:35.151Z,63.20
2023-05-19T02:04:19.214Z,63.20
2023-05-19T02:06:56.156Z,63.70
2023-05-19T02:09:35.989Z,63.80
2023-05-19T02:12:12.115Z,63.60
2023-05-19T02:15:04.496Z,64.20
2023-05-19T02:17:37.169Z,62.60
2023-05-19T02:20:06.764Z,62.20
2023-05-19T02:22:34.822Z,63.00
2023-05-19T02:25:02.925Z,63.40
2023-05-19T02:27:30.978Z,62.90
2023-05-19T02:29:59.047Z,62.90
2023-05-19T02:32:27.076Z,63.20
2023-05-19T02:34:56.576Z,63.20
2023-05-19T02:37:25.256Z,64.80
2023-05-19T02:39:53.213Z,64.90
2023-05-19T02:42:21.256Z,64.80
2023-05-19T02:44:49.863Z,64.60
2023-05-19T02:47:17.878Z,65.00
2023-05-19T02:49:45.929Z,65.70
2023-05-19T02:52:15.347Z,64.30
2023-05-19T02:54:43.427Z,64.80
2023-05-19T02:57:12.106Z,65.60
2023-05-19T02:59:40.101Z,65.90
2023-05-19T03:02:08.182Z,66.00
2023-05-19T03:04:42.849Z,66.30
2023-05-19T03:07:13.259Z,67.30
2023-05-19T03:09:42.684Z,68.30
2023-05-19T03:12:10.690Z,68.90
2023-05-19T03:14:39.078Z,69.00
2023-05-19T03:17:08.615Z,69.90
2023-05-19T03:19:36.706Z,70.70
2023-05-19T03:22:05.011Z,70.80
2023-05-19T03:24:33.062Z,70.10
2023-05-19T03:27:02.519Z,69.20
2023-05-19T03:29:31.001Z,69.10
2023-05-19T03:31:59.770Z,69.10
2023-05-19T03:34:27.842Z,69.30
2023-05-19T03:36:55.835Z,69.60
2023-05-19T03:39:23.805Z,69.10
2023-05-19T03:41:51.798Z,68.70
2023-05-19T03:44:21.112Z,69.00
2023-05-19T03:46:49.113Z,68.80
2023-05-19T03:49:17.244Z,70.10
2023-05-19T03:51:46.173Z,70.60
2023-05-19T03:54:14.157Z,70.80
2023-05-19T03:56:44.692Z,70.40
2023-05-19T03:59:12.915Z,71.10
2023-05-19T04:01:42.338Z,72.10
2023-05-19T04:04:10.369Z,71.10
2023-05-19T04:06:38.380Z,70.50
2023-05-19T04:09:13.040Z,69.60
2023-05-19T04:11:41.224Z,69.60
2023-05-19T04:14:09.554Z,70.40
2023-05-19T04:16:37.712Z,70.90
2023-05-19T04:19:07.083Z,71.20
2023-05-19T04:21:36.182Z,70.70
2023-05-19T04:24:06.359Z,71.10
2023-05-19T04:26:34.597Z,70.70
2023-05-19T04:29:04.918Z,70.60
2023-05-19T04:31:34.444Z,70.80
2023-05-19T04:34:02.819Z,69.30
2023-05-19T04:36:34.032Z,69.30
2023-05-19T04:39:07.312Z,68.40
2023-05-19T04:41:35.374Z,66.70
2023-05-19T04:44:03.907Z,66.10
2023-05-19T04:46:32.250Z,65.40
2023-05-19T04:49:01.215Z,65.60
2023-05-19T04:51:31.448Z,65.60
2023-05-19T04:54:01.501Z,65.40
2023-05-19T04:56:30.089Z,64.60
2023-05-19T04:58:58.170Z,63.40
2023-05-19T05:01:26.556Z,62.50
2023-05-19T05:03:56.160Z,61.20
2023-05-19T05:06:24.212Z,59.80
2023-05-19T05:08:52.608Z,56.00
2023-05-19T05:11:22.595Z,50.40
2023-05-19T05:13:51.055Z,41.80
2023-05-19T05:16:19.559Z,34.20
2023-05-19T05:18:48.108Z,30.60
2023-05-19T05:21:16.717Z,28.80
2023-05-19T05:23:45.234Z,28.30
2023-05-19T05:26:19.594Z,26.20
2023-05-19T05:28:48.951Z,24.40
2023-05-19T05:31:17.260Z,23.30
2023-05-19T05:33:45.639Z,22.30
2023-05-19T05:36:13.705Z,22.30
2023-05-19T05:38:41.687Z,20.90
2023-05-19T05:41:09.697Z,21.10
2023-05-19T05:43:37.688Z,21.50
2023-05-19T05:46:07.393Z,20.70
2023-05-19T05:48:36.272Z,20.60
2023-05-19T05:51:04.822Z,19.50
2023-05-19T05:53:38.000Z,19.40
2023-05-19T05:56:06.713Z,17.50
2023-05-19T05:58:37.330Z,16.10
2023-05-19T06:01:10.331Z,15.90
2023-05-19T06:03:39.766Z,14.40
2023-05-19T06:06:08.086Z,13.40
2023-05-19T06:08:36.368Z,12.80
2023-05-19T06:11:08.394Z,11.90
2023-05-19T06:13:36.932Z,10.60
2023-05-19T06:16:07.068Z,10.40
2023-05-19T06:18:35.073Z,7.70
2023-05-19T06:21:03.298Z,7.40
2023-05-19T06:23:31.793Z,8.70
2023-05-19T06:25:59.787Z,6.80
2023-05-19T06:28:27.781Z,8.40
2023-05-19T06:30:55.808Z,7.70
2023-05-19T06:33:28.140Z,6.90
2023-05-19T06:35:57.050Z,8.60
2023-05-19T06:38:25.064Z,8.80
2023-05-19T06:40:53.018Z,7.10
2023-05-19T06:43:21.260Z,7.70
2023-05-19T06:45:49.259Z,7.40
2023-05-19T06:48:17.312Z,8.00
2023-05-19T06:50:46.677Z,8.00
2023-05-19T06:53:14.683Z,7.90
2023-05-19T06:55:54.808Z,9.20
2023-05-19T06:58:27.810Z,8.10
2023-05-19T07:00:55.871Z,8.70
2023-05-19T07:03:23.959Z,9.30
2023-05-19T07:05:53.510Z,10.40
2023-05-19T07:08:21.440Z,10.50
2023-05-19T07:10:49.453Z,11.70
2023-05-19T07:13:17.516Z,12.20
2023-05-19T07:15:45.652Z,11.00
2023-05-19T07:18:13.652Z,9.40
2023-05-19T07:20:41.748Z,9.10
2023-05-19T07:23:11.079Z,9.50
2023-05-19T07:25:39.170Z,8.20
2023-05-19T07:28:07.124Z,8.50
2023-05-19T07:30:35.151Z,8.80
2023-05-19T07:33:03.592Z,7.70
2023-05-19T07:35:31.715Z,6.10
2023-05-19T07:37:59.739Z,6.10
2023-05-19T07:40:29.050Z,5.70
2023-05-19T07:42:57.024Z,7.50
2023-05-19T07:45:24.998Z,8.10
2023-05-19T07:47:54.032Z,8.50
2023-05-19T07:50:22.313Z,9.50
2023-05-19T07:52:50.432Z,9.90
2023-05-19T07:55:19.196Z,11.30
2023-05-19T07:57:48.573Z,14.50
2023-05-19T08:00:17.743Z,14.70
2023-05-19T08:02:46.241Z,14.80
2023-05-19T08:05:14.313Z,16.00
2023-05-19T08:07:42.371Z,17.00
2023-05-19T08:10:10.600Z,17.60
2023-05-19T08:12:38.682Z,16.40
2023-05-19T08:15:11.709Z,18.90
2023-05-19T08:17:39.759Z,17.10
2023-05-19T08:20:10.200Z,17.60
2023-05-19T08:22:38.278Z,18.30
2023-05-19T08:25:07.436Z,19.90
2023-05-19T08:27:35.581Z,18.90
2023-05-19T08:30:03.613Z,19.10
2023-05-19T08:32:32.922Z,20.50
2023-05-19T08:35:00.945Z,21.00
2023-05-19T08:37:28.982Z,20.40
2023-05-19T08:39:57.187Z,20.80
2023-05-19T08:42:25.140Z,21.10
2023-05-19T08:44:53.168Z,22.70
2023-05-19T08:47:21.200Z,23.00
2023-05-19T08:49:54.320Z,22.30
2023-05-19T08:52:31.494Z,22.50
2023-05-19T08:55:05.004Z,22.50
2023-05-19T08:57:34.156Z,21.50
2023-05-19T09:00:06.130Z,18.60
2023-05-19T09:02:34.689Z,19.40
2023-05-19T09:05:04.875Z,20.80
2023-05-19T09:07:34.798Z,17.50
2023-05-19T09:10:03.732Z,18.00
2023-05-19T09:12:31.903Z,18.60
2023-05-19T09:15:04.650Z,17.40
2023-05-19T09:17:32.843Z,18.00
2023-05-19T09:20:06.772Z,18.30
2023-05-19T09:22:36.631Z,17.20
2023-05-19T09:25:04.804Z,18.00
2023-05-19T09:27:33.712Z,16.90
2023-05-19T09:30:10.384Z,16.40
2023-05-19T09:32:38.501Z,17.20
2023-05-19T09:35:09.275Z,17.50
2023-05-19T09:37:40.053Z,17.60
2023-05-19T09:40:11.371Z,17.60
2023-05-19T09:42:43.028Z,18.60
2023-05-19T09:45:11.491Z,17.50
2023-05-19T09:47:41.373Z,19.00
2023-05-19T09:50:12.640Z,16.00
2023-05-19T09:52:43.597Z,16.60
2023-05-19T09:55:13.317Z,15.60
2023-05-19T09:57:42.021Z,14.80
2023-05-19T10:00:15.397Z,14.60
2023-05-19T10:02:47.672Z,16.60
2023-05-19T10:05:20.253Z,16.50
2023-05-19T10:07:51.522Z,16.40
2023-05-19T10:10:20.949Z,16.50
2023-05-19T10:12:49.424Z,17.80
2023-05-19T10:15:20.558Z,17.00
2023-05-19T10:17:51.609Z,17.00
2023-05-19T10:20:21.086Z,17.10
2023-05-19T10:22:49.598Z,17.10
2023-05-19T10:25:19.822Z,15.60
2023-05-19T10:27:54.873Z,16.60
2023-05-19T10:30:29.697Z,16.60
2023-05-19T10:32:58.347Z,16.80
2023-05-19T10:35:45.155Z,16.80
2023-05-19T10:38:22.966Z,15.80
2023-05-19T10:41:02.035Z,15.80
2023-05-19T10:43:48.075Z,14.90
2023-05-19T10:46:16.349Z,14.10
2023-05-19T10:48:46.838Z,13.70
2023-05-19T10:51:17.384Z,14.90
2023-05-19T10:53:50.114Z,15.10
2023-05-19T10:56:33.715Z,13.60
2023-05-19T10:59:02.251Z,13.70
2023-05-19T11:01:33.509Z,14.70
2023-05-19T11:04:06.956Z,14.80
2023-05-19T11:06:38.061Z,13.70
2023-05-19T11:09:14.063Z,16.00
2023-05-19T11:11:47.768Z,15.70
2023-05-19T11:14:18.398Z,15.00
2023-05-19T11:16:48.977Z,16.20
2023-05-19T11:19:21.391Z,15.10
2023-05-19T11:21:52.423Z,16.80
2023-05-19T11:24:36.950Z,16.30
2023-05-19T11:27:28.130Z,17.10
2023-05-19T11:29:57.181Z,17.20
2023-05-19T11:32:28.469Z,17.40
2023-05-19T11:34:57.637Z,16.10
2023-05-19T11:37:28.702Z,17.90
2023-05-19T11:39:56.770Z,18.20
2023-05-19T11:42:25.094Z,17.80
2023-05-19T11:44:59.252Z,17.70
2023-05-19T11:47:28.175Z,18.30
2023-05-19T11:50:10.761Z,17.60
2023-05-19T11:52:45.673Z,19.10
2023-05-19T11:55:16.941Z,19.50
2023-05-19T11:58:02.950Z,18.10
2023-05-19T12:00:37.109Z,18.50
2023-05-19T12:03:06.066Z,18.80
2023-05-19T12:05:40.844Z,16.60
2023-05-19T12:08:11.702Z,16.60
2023-05-19T12:10:40.694Z,17.70
2023-05-19T12:13:10.140Z,17.50
2023-05-19T12:15:39.533Z,18.50
2023-05-19T12:18:08.445Z,19.00
2023-05-19T12:20:37.201Z,17.70
2023-05-19T12:23:05.727Z,17.60
2023-05-19T12:25:35.385Z,18.30
2023-05-19T12:28:04.491Z,19.10
2023-05-19T12:30:34.206Z,16.90
2023-05-19T12:33:04.053Z,16.90
2023-05-19T12:35:33.945Z,16.30
2023-05-19T12:38:05.213Z,16.90
2023-05-19T12:40:36.801Z,15.90
2023-05-19T12:43:05.498Z,16.80
2023-05-19T12:45:36.014Z,16.40
2023-05-19T12:48:05.808Z,16.90
2023-05-19T12:50:35.301Z,17.00
2023-05-19T12:53:03.498Z,16.80
2023-05-19T12:55:31.731Z,17.20
2023-05-19T12:58:06.633Z,17.40
2023-05-19T13:00:36.115Z,16.60
2023-05-19T13:03:06.691Z,17.20
2023-05-19T13:05:36.781Z,17.90
2023-05-19T13:08:08.659Z,17.70
2023-05-19T13:10:38.334Z,16.40
2023-05-19T13:13:09.279Z,14.70
2023-05-19T13:15:39.822Z,16.00
2023-05-19T13:18:09.607Z,16.70
2023-05-19T13:20:38.147Z,16.90
2023-05-19T13:23:06.752Z,16.80
2023-05-19T13:25:35.500Z,17.50
2023-05-19T13:28:05.835Z,19.40
2023-05-19T13:30:36.826Z,20.00
2023-05-19T13:33:05.379Z,19.10
2023-05-19T13:35:37.000Z,19.80
2023-05-19T13:38:05.756Z,21.40
2023-05-19T13:40:34.736Z,21.40
2023-05-19T13:43:03.282Z,21.20
2023-05-19T13:45:45.329Z,20.90
2023-05-19T13:48:13.391Z,22.90
2023-05-19T13:50:41.391Z,21.50
2023-05-19T13:53:11.503Z,22.20
2023-05-19T13:55:39.536Z,23.90
2023-05-19T13:58:07.713Z,23.10
2023-05-19T14:00:36.811Z,22.00
2023-05-19T14:03:06.935Z,21.50
2023-05-19T14:05:35.562Z,23.00
2023-05-19T14:08:05.082Z,24.00
2023-05-19T14:10:33.243Z,22.90
2023-05-19T14:15:34.524Z,24.90
2023-05-19T14:18:03.618Z,25.90
2023-05-19T14:20:34.315Z,24.10
2023-05-19T14:23:02.961Z,23.30
2023-05-19T14:25:30.894Z,23.70
2023-05-19T14:27:58.866Z,25.50
2023-05-19T14:30:26.869Z,24.10
2023-05-19T14:32:54.863Z,23.50
2023-05-19T14:35:23.566Z,24.20
2023-05-19T14:37:53.220Z,24.50
2023-05-19T14:40:21.175Z,23.90
2023-05-19T14:42:49.120Z,24.40
2023-05-19T14:45:17.160Z,21.80
2023-05-19T14:47:45.841Z,21.90
2023-05-19T14:50:14.943Z,22.80
2023-05-19T14:52:42.934Z,22.00
2023-05-19T14:55:12.362Z,22.60
2023-05-19T14:57:40.327Z,23.70
2023-05-19T15:00:10.273Z,24.60
2023-05-19T15:02:38.373Z,23.40
2023-05-19T15:05:07.001Z,22.60
2023-05-19T15:07:34.996Z,23.40
2023-05-19T15:10:03.090Z,22.70
2023-05-19T15:12:32.423Z,23.70
2023-05-19T15:15:00.979Z,23.00
2023-05-19T15:17:28.978Z,23.50
2023-05-19T15:19:56.987Z,23.10
2023-05-19T15:22:24.980Z,21.50
2023-05-19T15:24:52.985Z,22.30
2023-05-19T15:27:21.202Z,22.00
2023-05-19T15:29:50.578Z,23.40
2023-05-19T15:32:18.554Z,24.40
2023-05-19T15:34:47.517Z,25.00
2023-05-19T15:37:15.497Z,24.60
2023-05-19T15:39:43.673Z,24.10
2023-05-19T15:42:11.681Z,23.70
2023-05-19T15:44:39.634Z,23.70
2023-05-19T15:47:08.948Z,23.60
2023-05-19T15:49:36.907Z,23.40
2023-05-19T15:52:05.354Z,24.70
2023-05-19T15:54:33.339Z,24.00
2023-05-19T15:57:01.289Z,25.40
2023-05-19T15:59:29.249Z,23.90
2023-05-19T16:01:57.266Z,24.30
2023-05-19T16:04:26.592Z,24.80
2023-05-19T16:06:54.527Z,24.10
2023-05-19T16:09:22.524Z,23.70
2023-05-19T16:11:50.514Z,23.90
2023-05-19T16:14:18.507Z,24.20
2023-05-19T16:16:46.491Z,24.80
2023-05-19T16:19:14.537Z,24.50
2023-05-19T16:21:43.897Z,21.70
2023-05-19T16:24:11.839Z,21.90
2023-05-19T16:26:39.787Z,23.20
2023-05-19T16:29:07.738Z,24.10
2023-05-19T16:31:35.695Z,23.90
2023-05-19T16:34:03.736Z,22.80
2023-05-19T16:36:31.806Z,23.50
2023-05-19T16:39:01.139Z,23.20
2023-05-19T16:41:29.132Z,23.90
2023-05-19T16:43:57.083Z,23.70
2023-05-19T16:46:25.161Z,23.50
2023-05-19T16:48:53.170Z,22.70
2023-05-19T16:51:21.250Z,24.00
2023-05-19T16:53:49.188Z,24.30
2023-05-19T16:56:18.519Z,24.60
2023-05-19T16:58:46.530Z,23.30
2023-05-19T17:01:14.508Z,23.90
2023-05-19T17:03:42.501Z,23.60
2023-05-19T17:06:10.493Z,23.30
2023-05-19T17:08:38.460Z,23.80
2023-05-19T17:11:07.251Z,23.60
2023-05-19T17:13:37.123Z,24.40
2023-05-19T17:16:05.246Z,24.30
2023-05-19T17:18:33.221Z,24.20
2023-05-19T17:21:03.556Z,24.40
2023-05-19T17:23:32.196Z,24.50
2023-05-19T17:26:00.192Z,25.10
2023-05-19T17:28:28.270Z,24.60
2023-05-19T17:30:57.566Z,25.00
2023-05-19T17:33:25.646Z,24.60
2023-05-19T17:35:53.681Z,25.20
2023-05-19T17:38:21.681Z,26.10
2023-05-19T17:40:49.624Z,25.60
2023-05-19T17:43:17.570Z,25.30
2023-05-19T17:45:45.863Z,24.90
2023-05-19T17:48:15.196Z,25.40
2023-05-19T17:50:43.184Z,25.40
2023-05-19T17:53:11.384Z,23.80
2023-05-19T17:55:39.912Z,24.20
2023-05-19T17:58:08.530Z,25.60
2023-05-19T18:00:37.073Z,26.30
2023-05-19T18:03:06.314Z,26.40
2023-05-19T18:05:37.411Z,26.10
2023-05-19T18:08:09.131Z,27.30
2023-05-19T18:10:38.592Z,27.80
2023-05-19T18:13:06.925Z,28.00
2023-05-19T18:15:34.983Z,28.40
2023-05-19T18:18:05.544Z,28.80
2023-05-19T18:20:35.210Z,29.70
2023-05-19T18:23:03.318Z,29.90
2023-05-19T18:25:31.335Z,31.40
2023-05-19T18:27:59.319Z,31.40
2023-05-19T18:30:27.285Z,33.30
2023-05-19T18:32:55.408Z,36.50
2023-05-19T18:35:23.438Z,38.40
2023-05-19T18:37:56.258Z,40.20
2023-05-19T18:40:24.605Z,41.00
2023-05-19T18:42:52.586Z,41.60
2023-05-19T18:45:20.542Z,42.90
2023-05-19T18:47:48.811Z,45.60
2023-05-19T18:50:16.983Z,46.80
2023-05-19T18:52:44.932Z,48.60
2023-05-19T18:55:14.234Z,50.60
2023-05-19T18:57:42.194Z,54.00
2023-05-19T19:00:13.569Z,55.20
2023-05-19T19:02:41.620Z,55.80
2023-05-19T19:05:10.295Z,57.00
2023-05-19T19:07:41.086Z,58.80
2023-05-19T19:10:10.135Z,60.00
2023-05-19T19:12:39.805Z,61.10
2023-05-19T19:15:08.646Z,61.70
2023-05-19T19:17:36.910Z,62.50
2023-05-19T19:20:05.352Z,63.90
2023-05-19T19:22:33.370Z,64.60
2023-05-19T19:25:01.360Z,67.40
2023-05-19T19:27:31.042Z,68.10
2023-05-19T19:30:00.725Z,68.90
2023-05-19T19:32:28.823Z,72.10
2023-05-19T19:34:56.839Z,72.40
2023-05-19T19:37:24.855Z,73.20
2023-05-19T19:39:52.852Z,74.20
2023-05-19T19:42:20.795Z,75.20
2023-05-19T19:44:48.744Z,75.70
2023-05-19T19:47:18.040Z,76.00
2023-05-19T19:49:46.065Z,77.00
2023-05-19T19:52:14.076Z,79.30
2023-05-19T19:54:42.119Z,81.10
2023-05-19T19:57:10.122Z,82.80
2023-05-19T19:59:38.068Z,84.60
2023-05-19T20:02:06.242Z,86.10
2023-05-19T20:04:35.713Z,85.90
2023-05-19T20:07:03.765Z,85.40
2023-05-19T20:09:31.752Z,85.30
2023-05-19T20:11:59.718Z,85.70
2023-05-19T20:14:27.736Z,86.80
2023-05-19T20:16:55.731Z,88.50
2023-05-19T20:19:25.446Z,88.40
2023-05-19T20:21:54.755Z,88.70
2023-05-19T20:24:22.765Z,89.20
2023-05-19T20:26:50.803Z,90.10
2023-05-19T20:29:18.783Z,90.00
2023-05-19T20:31:46.715Z,90.20
2023-05-19T20:34:15.170Z,90.60
2023-05-19T20:36:43.178Z,92.00
2023-05-19T20:39:12.511Z,93.00
2023-05-19T20:41:40.573Z,94.20
2023-05-19T20:44:10.244Z,94.00
2023-05-19T20:46:38.308Z,93.80
2023-05-19T20:49:06.370Z,93.50
2023-05-19T20:51:34.404Z,94.00
2023-05-19T20:54:02.384Z,94.30
2023-05-19T20:56:31.687Z,94.60
2023-05-19T20:58:59.694Z,95.10
2023-05-19T21:01:29.801Z,96.00
2023-05-19T21:03:57.896Z,96.50
2023-05-19T21:06:25.942Z,96.80
2023-05-19T21:08:53.896Z,97.30
2023-05-19T21:11:21.867Z,98.20
2023-05-19T21:13:51.258Z,98.80
2023-05-19T21:16:19.290Z,99.50
2023-05-19T21:18:47.298Z,99.70
2023-05-19T21:21:15.483Z,99.50
2023-05-19T21:23:43.446Z,99.20
2023-05-19T21:26:11.439Z,99.40
2023-05-19T21:28:39.417Z,99.50
2023-05-19T21:31:08.834Z,99.30
2023-05-19T21:33:36.879Z,99.10
2023-05-19T21:36:05.089Z,99.70
2023-05-19T21:38:33.070Z,99.90
2023-05-19T21:41:01.062Z,99.90
2023-05-19T21:43:29.035Z,99.90
2023-05-19T21:45:57.088Z,99.90
2023-05-19T21:48:26.487Z,99.90
2023-05-19T21:50:56.699Z,99.90
2023-05-19T21:53:24.943Z,99.90
2023-05-19T21:55:53.065Z,99.80
2023-05-19T21:58:21.202Z,99.10
2023-05-19T22:00:50.698Z,98.60
2023-05-19T22:03:19.365Z,98.00
2023-05-19T22:05:51.844Z,98.10
2023-05-19T22:08:22.182Z,98.20
2023-05-19T22:10:51.084Z,98.40
2023-05-19T22:13:19.246Z,98.60
2023-05-19T22:15:47.504Z,98.60
2023-05-19T22:18:15.657Z,98.40
2023-05-19T22:20:43.819Z,98.30
2023-05-19T22:23:13.130Z,98.10
2023-05-19T22:25:41.519Z,98.20
2023-05-19T22:28:09.538Z,98.40
2023-05-19T22:30:41.054Z,97.90
2023-05-19T22:33:09.760Z,98.00
2023-05-19T22:35:37.911Z,98.30
2023-05-19T22:38:07.541Z,98.20
2023-05-19T22:40:38.976Z,97.90
2023-05-19T22:43:07.024Z,97.70
2023-05-19T22:45:36.688Z,98.10
2023-05-19T22:48:05.396Z,98.40
2023-05-19T22:50:33.504Z,98.20
2023-05-19T22:53:01.503Z,98.30
2023-05-19T22:55:29.485Z,98.20
2023-05-19T22:57:58.987Z,98.00
2023-05-19T23:00:26.967Z,98.30
2023-05-19T23:02:55.017Z,98.60
2023-05-19T23:05:23.001Z,98.60
2023-05-19T23:07:50.959Z,98.90
2023-05-19T23:10:19.089Z,99.30
2023-05-19T23:12:47.150Z,99.50
2023-05-19T23:15:16.452Z,99.90
2023-05-19T23:17:44.437Z,99.90
2023-05-19T23:20:14.187Z,99.90
2023-05-19T23:22:42.144Z,99.90
2023-05-19T23:25:10.474Z,99.90
2023-05-19T23:27:38.558Z,99.90
2023-05-19T23:30:08.068Z,99.90
2023-05-19T23:32:37.387Z,99.90
2023-05-19T23:35:13.049Z,99.90
2023-05-19T23:37:41.159Z,99.90
2023-05-19T23:40:09.899Z,99.90
2023-05-19T23:42:38.264Z,99.90
2023-05-19T23:45:07.237Z,99.90
2023-05-19T23:47:35.223Z,99.90
2023-05-19T23:50:04.917Z,99.90
2023-05-19T23:52:32.898Z,99.90
2023-05-19T23:55:00.972Z,99.90
2023-05-19T23:57:28.934Z,99.90
2023-05-19T23:59:56.877Z,99.90
